Time,TemperatureF,DewpointF,PressureIn,WindDirection,WindDirectionDegrees,WindSpeedMPH,WindSpeedGustMPH,Humidity,HourlyPrecipIn,Conditions,Clouds,dailyrainin,SoftwareType,DateUTC
2013-04-28 00:06:00,49.6,40.6,30.11,NNW,337,0.0,-999.0,71,-99.99,,,0.00,Acu-Link.com,2013-04-28 04:06:00,
2013-04-28 00:21:00,48.7,40.1,30.11,NE,45,0.0,-999.0,72,-99.99,,,0.00,Acu-Link.com,2013-04-28 04:21:00,
2013-04-28 00:36:00,48.7,40.4,30.12,NNE,22,0.0,-999.0,73,-99.99,,,0.00,Acu-Link.com,2013-04-28 04:36:00,
2013-04-28 00:51:00,47.5,39.6,30.12,NE,45,0.0,-999.0,74,-99.99,,,0.00,Acu-Link.com,2013-04-28 04:51:00,
2013-04-28 01:07:00,47.5,39.6,30.11,NNE,22,0.0,-999.0,74,-99.99,,,0.00,Acu-Link.com,2013-04-28 05:07:00,
2013-04-28 01:22:00,46.9,39.7,30.12,North,0,0.0,-999.0,76,-99.99,,,0.00,Acu-Link.com,2013-04-28 05:22:00,
2013-04-28 01:37:00,46.6,39.1,30.12,East,90,0.0,-999.0,75,-99.99,,,0.00,Acu-Link.com,2013-04-28 05:37:00,
2013-04-28 01:52:00,46.4,39.3,30.12,ESE,112,0.0,-999.0,76,-99.99,,,0.00,Acu-Link.com,2013-04-28 05:52:00,
2013-04-28 02:07:00,45.3,38.2,30.11,ESE,112,0.0,-999.0,76,-99.99,,,0.00,Acu-Link.com,2013-04-28 06:07:00,
2013-04-28 02:22:00,44.6,37.8,30.12,NE,45,0.0,-999.0,77,-99.99,,,0.00,Acu-Link.com,2013-04-28 06:22:00,
2013-04-28 02:37:00,44.4,38.0,30.11,WNW,292,0.0,-999.0,78,-99.99,,,0.00,Acu-Link.com,2013-04-28 06:37:00,
2013-04-28 02:52:00,44.2,38.1,30.11,ESE,112,0.0,-999.0,79,-99.99,,,0.00,Acu-Link.com,2013-04-28 06:52:00,
2013-04-28 03:08:00,43.9,38.1,30.11,East,90,0.0,-999.0,80,-99.99,,,0.00,Acu-Link.com,2013-04-28 07:08:00,
2013-04-28 03:23:00,43.5,37.4,30.11,SSE,157,0.0,-999.0,79,-99.99,,,0.00,Acu-Link.com,2013-04-28 07:23:00,
2013-04-28 03:38:00,42.8,36.7,30.11,ESE,112,0.0,-999.0,79,-99.99,,,0.00,Acu-Link.com,2013-04-28 07:38:00,
2013-04-28 03:53:00,42.8,37.4,30.11,NE,45,0.0,-999.0,81,-99.99,,,0.00,Acu-Link.com,2013-04-28 07:53:00,
2013-04-28 04:08:00,42.4,37.3,30.12,ESE,112,0.0,-999.0,82,-99.99,,,0.00,Acu-Link.com,2013-04-28 08:08:00,
2013-04-28 04:23:00,42.1,37.0,30.11,ESE,112,0.0,-999.0,82,-99.99,,,0.00,Acu-Link.com,2013-04-28 08:23:00,
2013-04-28 04:39:00,41.2,36.7,30.12,East,90,0.0,-999.0,84,-99.99,,,0.00,Acu-Link.com,2013-04-28 08:39:00,
2013-04-28 04:54:00,41.4,36.6,30.11,SSE,157,0.0,-999.0,83,-99.99,,,0.00,Acu-Link.com,2013-04-28 08:54:00,
2013-04-28 05:09:00,41.0,37.1,30.12,SSW,202,0.0,-999.0,86,-99.99,,,0.00,Acu-Link.com,2013-04-28 09:09:00,
2013-04-28 05:24:00,41.0,37.1,30.11,ESE,112,0.0,-999.0,86,-99.99,,,0.00,Acu-Link.com,2013-04-28 09:24:00,
2013-04-28 05:39:00,40.3,36.7,30.11,NE,45,0.0,-999.0,87,-99.99,,,0.00,Acu-Link.com,2013-04-28 09:39:00,
2013-04-28 05:54:00,40.1,36.5,30.11,East,90,0.0,-999.0,87,-99.99,,,0.00,Acu-Link.com,2013-04-28 09:54:00,
2013-04-28 06:09:00,40.1,36.8,30.11,East,90,0.0,-999.0,88,-99.99,,,0.00,Acu-Link.com,2013-04-28 10:09:00,
2013-04-28 06:25:00,39.9,36.4,30.12,East,90,0.0,-999.0,87,-99.99,,,0.00,Acu-Link.com,2013-04-28 10:25:00,
2013-04-28 06:40:00,39.9,36.6,30.12,NNE,22,0.0,-999.0,88,-99.99,,,0.00,Acu-Link.com,2013-04-28 10:40:00,
2013-04-28 06:55:00,40.1,36.8,30.13,ESE,112,0.0,-999.0,88,-99.99,,,0.00,Acu-Link.com,2013-04-28 10:55:00,
2013-04-28 07:10:00,40.6,37.3,30.13,ENE,67,0.0,-999.0,88,-99.99,,,0.00,Acu-Link.com,2013-04-28 11:10:00,
2013-04-28 07:25:00,41.7,37.8,30.13,South,180,2.2,-999.0,86,-99.99,,,0.00,Acu-Link.com,2013-04-28 11:25:00,
2013-04-28 07:40:00,43.5,38.7,30.13,ESE,112,0.0,-999.0,83,-99.99,,,0.00,Acu-Link.com,2013-04-28 11:40:00,
2013-04-28 07:55:00,45.1,38.7,30.13,NNE,22,1.7,-999.0,78,-99.99,,,0.00,Acu-Link.com,2013-04-28 11:55:00,
2013-04-28 08:10:00,46.9,39.1,30.14,SSE,157,1.1,-999.0,74,-99.99,,,0.00,Acu-Link.com,2013-04-28 12:10:00,
2013-04-28 08:25:00,48.2,39.2,30.13,North,0,1.7,-999.0,71,-99.99,,,0.00,Acu-Link.com,2013-04-28 12:25:00,
2013-04-28 08:41:00,49.8,40.0,30.13,East,90,1.7,-999.0,69,-99.99,,,0.00,Acu-Link.com,2013-04-28 12:41:00,
2013-04-28 08:56:00,51.3,40.7,30.13,East,90,1.7,-999.0,67,-99.99,,,0.00,Acu-Link.com,2013-04-28 12:56:00,
2013-04-28 09:11:00,52.7,41.7,30.12,NE,45,3.2,-999.0,66,-99.99,,,0.00,Acu-Link.com,2013-04-28 13:11:00,
2013-04-28 09:26:00,54.1,41.8,30.12,ESE,112,1.1,-999.0,63,-99.99,,,0.00,Acu-Link.com,2013-04-28 13:26:00,
2013-04-28 09:43:00,56.3,43.0,30.12,NNW,337,0.0,-999.0,61,-99.99,,,0.00,Acu-Link.com,2013-04-28 13:43:00,
2013-04-28 09:58:00,57.9,44.1,30.12,East,90,1.7,-999.0,60,-99.99,,,0.00,Acu-Link.com,2013-04-28 13:58:00,
2013-04-28 10:13:00,59.5,44.3,30.11,SE,135,2.7,-999.0,57,-99.99,,,0.00,Acu-Link.com,2013-04-28 14:13:00,
2013-04-28 10:28:00,62.2,44.4,30.11,North,0,2.2,-999.0,52,-99.99,,,0.00,Acu-Link.com,2013-04-28 14:28:00,
2013-04-28 10:43:00,64.2,45.7,30.10,SSE,157,1.7,-999.0,51,-99.99,,,0.00,Acu-Link.com,2013-04-28 14:43:00,
2013-04-28 10:58:00,63.1,46.7,30.10,ESE,112,1.7,-999.0,55,-99.99,,,0.00,Acu-Link.com,2013-04-28 14:58:00,
2013-04-28 11:13:00,65.1,45.5,30.09,East,90,1.1,-999.0,49,-99.99,,,0.00,Acu-Link.com,2013-04-28 15:13:00,
2013-04-28 11:29:00,67.1,40.6,30.09,South,180,6.8,-999.0,38,-99.99,,,0.00,Acu-Link.com,2013-04-28 15:29:00,
2013-04-28 11:44:00,67.5,41.0,30.09,SSE,157,6.8,-999.0,38,-99.99,,,0.00,Acu-Link.com,2013-04-28 15:44:00,
2013-04-28 11:59:00,68.7,42.7,30.09,South,180,3.7,-999.0,39,-99.99,,,0.00,Acu-Link.com,2013-04-28 15:59:00,
2013-04-28 12:14:00,68.4,41.8,30.08,ESE,112,4.7,-999.0,38,-99.99,,,0.00,Acu-Link.com,2013-04-28 16:14:00,
2013-04-28 12:29:00,68.5,41.9,30.06,SSE,157,6.3,-999.0,38,-99.99,,,0.00,Acu-Link.com,2013-04-28 16:29:00,
2013-04-28 12:44:00,68.0,41.4,30.06,SSE,157,2.2,-999.0,38,-99.99,,,0.00,Acu-Link.com,2013-04-28 16:44:00,
2013-04-28 13:01:00,67.3,41.5,30.05,ESE,112,4.7,-999.0,39,-99.99,,,0.00,Acu-Link.com,2013-04-28 17:01:00,
2013-04-28 13:22:00,67.8,43.2,30.06,South,180,2.7,-999.0,41,-99.99,,,0.00,Acu-Link.com,2013-04-28 17:22:00,
2013-04-28 13:38:00,68.0,43.4,30.04,SSE,157,4.7,-999.0,41,-99.99,,,0.00,Acu-Link.com,2013-04-28 17:38:00,
2013-04-28 13:53:00,68.7,43.4,30.03,ESE,112,2.7,-999.0,40,-99.99,,,0.00,Acu-Link.com,2013-04-28 17:53:00,
2013-04-28 14:08:00,67.8,43.9,30.04,WSW,247,3.7,-999.0,42,-99.99,,,0.00,Acu-Link.com,2013-04-28 18:08:00,
2013-04-28 14:23:00,66.4,43.2,30.04,SSE,157,4.2,-999.0,43,-99.99,,,0.00,Acu-Link.com,2013-04-28 18:23:00,
2013-04-28 14:39:00,66.0,44.0,30.04,SSE,157,7.3,-999.0,45,-99.99,,,0.00,Acu-Link.com,2013-04-28 18:39:00,
2013-04-28 14:54:00,65.7,43.8,30.04,SSE,157,2.7,-999.0,45,-99.99,,,0.00,Acu-Link.com,2013-04-28 18:54:00,
2013-04-28 15:09:00,64.9,43.6,30.04,East,90,4.2,-999.0,46,-99.99,,,0.00,Acu-Link.com,2013-04-28 19:09:00,
2013-04-28 15:24:00,65.1,44.4,30.02,NW,315,2.2,-999.0,47,-99.99,,,0.00,Acu-Link.com,2013-04-28 19:24:00,
2013-04-28 15:39:00,64.8,44.1,30.01,South,180,9.9,-999.0,47,-99.99,,,0.00,Acu-Link.com,2013-04-28 19:39:00,
2013-04-28 15:57:00,64.9,43.6,30.01,SE,135,1.7,-999.0,46,-99.99,,,0.00,Acu-Link.com,2013-04-28 19:57:00,
2013-04-28 16:12:00,65.1,43.8,30.01,ESE,112,5.3,-999.0,46,-99.99,,,0.00,Acu-Link.com,2013-04-28 20:12:00,
2013-04-28 16:33:00,64.8,43.5,29.99,ESE,112,2.7,-999.0,46,-99.99,,,0.00,Acu-Link.com,2013-04-28 20:33:00,
2013-04-28 16:51:00,63.9,45.4,30.01,ENE,67,4.7,-999.0,51,-99.99,,,0.00,Acu-Link.com,2013-04-28 20:51:00,
2013-04-28 17:06:00,62.4,46.0,30.01,ESE,112,2.7,-999.0,55,-99.99,,,0.00,Acu-Link.com,2013-04-28 21:06:00,
2013-04-28 17:24:00,59.2,48.6,30.01,SE,135,2.7,-999.0,68,-99.99,,,0.00,Acu-Link.com,2013-04-28 21:24:00,
2013-04-28 17:39:00,57.7,48.4,30.01,West,270,3.7,-999.0,71,-99.99,,,0.00,Acu-Link.com,2013-04-28 21:39:00,
2013-04-28 17:54:00,57.0,48.4,30.02,West,270,1.7,-999.0,73,-99.99,,,0.00,Acu-Link.com,2013-04-28 21:54:00,
2013-04-28 18:09:00,56.5,48.3,30.01,SE,135,2.2,-999.0,74,-99.99,,,0.00,Acu-Link.com,2013-04-28 22:09:00,
2013-04-28 18:25:00,56.3,48.1,30.01,West,270,3.2,-999.0,74,-99.99,,,0.00,Acu-Link.com,2013-04-28 22:25:00,
2013-04-28 18:40:00,55.8,47.3,30.00,SSE,157,7.3,-999.0,73,-99.99,,,0.00,Acu-Link.com,2013-04-28 22:40:00,
2013-04-28 18:55:00,55.2,47.4,30.01,North,0,1.1,-999.0,75,-99.99,,,0.00,Acu-Link.com,2013-04-28 22:55:00,
2013-04-28 19:10:00,55.4,46.5,30.01,SSE,157,2.7,-999.0,72,-99.99,,,0.00,Acu-Link.com,2013-04-28 23:10:00,
2013-04-28 19:25:00,55.2,46.3,29.99,ESE,112,0.0,-999.0,72,-99.99,,,0.00,Acu-Link.com,2013-04-28 23:25:00,
2013-04-28 19:40:00,55.0,45.8,29.99,SSE,157,3.2,-999.0,71,-99.99,,,0.00,Acu-Link.com,2013-04-28 23:40:00,
2013-04-28 19:56:00,55.2,45.2,29.99,South,180,1.1,-999.0,69,-99.99,,,0.00,Acu-Link.com,2013-04-28 23:56:00,
2013-04-28 20:11:00,55.4,44.2,30.00,SE,135,2.2,-999.0,66,-99.99,,,0.00,Acu-Link.com,2013-04-29 00:11:00,
2013-04-28 20:31:00,55.6,44.0,29.99,NW,315,1.7,-999.0,65,-99.99,,,0.00,Acu-Link.com,2013-04-29 00:31:00,
2013-04-28 20:46:00,55.6,44.0,29.99,ESE,112,1.7,-999.0,65,-99.99,,,0.00,Acu-Link.com,2013-04-29 00:46:00,
2013-04-28 21:01:00,55.8,43.4,30.00,SSW,202,1.7,-999.0,63,-99.99,,,0.00,Acu-Link.com,2013-04-29 01:01:00,
2013-04-28 21:16:00,55.8,43.4,30.01,SSE,157,6.3,-999.0,63,-99.99,,,0.00,Acu-Link.com,2013-04-29 01:16:00,
2013-04-28 21:31:00,55.8,43.4,30.01,SSE,157,2.2,-999.0,63,-99.99,,,0.00,Acu-Link.com,2013-04-29 01:31:00,
2013-04-28 21:47:00,55.8,43.4,30.00,West,270,2.7,-999.0,63,-99.99,,,0.00,Acu-Link.com,2013-04-29 01:47:00,
2013-04-28 22:02:00,55.8,42.6,30.00,SSE,157,2.2,-999.0,61,-99.99,,,0.00,Acu-Link.com,2013-04-29 02:02:00,
2013-04-28 22:17:00,56.1,42.4,29.99,SSE,157,3.2,-999.0,60,-99.99,,,0.00,Acu-Link.com,2013-04-29 02:17:00,
2013-04-28 22:32:00,56.7,41.6,29.99,SSE,157,6.8,-999.0,57,-99.99,,,0.00,Acu-Link.com,2013-04-29 02:32:00,
2013-04-28 22:47:00,56.3,43.0,29.99,ESE,112,1.1,-999.0,61,-99.99,,,0.00,Acu-Link.com,2013-04-29 02:47:00,
2013-04-28 23:02:00,56.3,42.6,29.99,ESE,112,2.7,-999.0,60,-99.99,,,0.00,Acu-Link.com,2013-04-29 03:02:00,
2013-04-28 23:18:00,55.9,42.2,30.00,East,90,3.2,-999.0,60,-99.99,,,0.00,Acu-Link.com,2013-04-29 03:18:00,
2013-04-28 23:33:00,55.9,42.2,29.99,WNW,292,1.7,-999.0,60,-99.99,,,0.00,Acu-Link.com,2013-04-29 03:33:00,
2013-04-28 23:48:00,55.9,43.1,29.99,East,90,1.1,-999.0,62,-99.99,,,0.00,Acu-Link.com,2013-04-29 03:48:00,